createdAt,value
2019-01-30T00:02:18.999Z,1.00
2019-01-30T00:04:24.921Z,0.90
2019-01-30T00:07:20.346Z,1.00
2019-01-30T00:12:40.942Z,0.90
2019-01-30T00:15:15.579Z,0.90
2019-01-30T00:22:13.606Z,0.90
2019-01-30T00:23:36.658Z,0.80
2019-01-30T00:26:50.698Z,0.80
2019-01-30T00:29:19.169Z,0.80
2019-01-30T00:31:57.067Z,0.80
2019-01-30T00:35:09.649Z,0.80
2019-01-30T00:37:42.074Z,0.70
2019-01-30T00:40:14.722Z,0.60
2019-01-30T00:45:58.405Z,0.60
2019-01-30T00:48:45.117Z,0.60
2019-01-30T00:51:15.107Z,0.60
2019-01-30T00:53:57.869Z,0.50
2019-01-30T00:56:28.192Z,0.50
2019-01-30T00:59:16.001Z,0.40
2019-01-30T01:01:45.967Z,0.40
2019-01-30T01:04:37.343Z,0.40
2019-01-30T01:07:11.373Z,0.30
2019-01-30T01:10:05.358Z,0.30
2019-01-30T01:12:29.156Z,0.20
2019-01-30T01:16:23.837Z,0.20
2019-01-30T01:17:50.722Z,0.20
2019-01-30T01:20:22.513Z,0.20
2019-01-30T01:22:53.788Z,0.20
2019-01-30T01:25:51.931Z,0.10
2019-01-30T01:28:31.865Z,0.10
2019-01-30T01:31:13.871Z,0.10
2019-01-30T01:34:03.852Z,0.10
2019-01-30T01:36:36.258Z,0.10
2019-01-30T01:39:18.929Z,0.00
2019-01-30T01:44:42.382Z,-0.10
2019-01-30T01:47:20.668Z,-0.10
2019-01-30T01:49:50.581Z,-0.10
2019-01-30T01:52:31.019Z,-0.20
2019-01-30T01:55:01.107Z,-0.20
2019-01-30T01:58:17.002Z,-0.40
2019-01-30T02:00:53.195Z,-0.40
2019-01-30T02:03:35.724Z,-0.40
2019-01-30T02:06:18.955Z,-0.50
2019-01-30T02:11:55.285Z,-0.60
2019-01-30T02:17:36.121Z,-0.80
2019-01-30T02:20:42.686Z,-0.80
2019-01-30T02:23:17.118Z,-0.90
2019-01-30T02:25:48.469Z,-0.90
2019-01-30T02:28:41.489Z,-0.90
2019-01-30T02:31:16.612Z,-1.00
2019-01-30T02:33:49.421Z,-1.10
2019-01-30T02:36:26.878Z,-1.10
2019-01-30T02:39:38.643Z,-1.00
2019-01-30T02:42:08.640Z,-1.00
2019-01-30T02:44:40.357Z,-0.80
2019-01-30T02:47:33.067Z,-0.90
2019-01-30T02:50:38.205Z,-0.90
2019-01-30T02:53:40.112Z,-1.10
2019-01-30T02:56:05.606Z,-1.00
2019-01-30T02:58:44.812Z,-1.00
2019-01-30T03:01:20.885Z,-1.10
2019-01-30T03:03:50.728Z,-1.00
2019-01-30T03:06:26.043Z,-1.00
2019-01-30T03:08:57.149Z,-1.00
2019-01-30T03:11:49.974Z,-1.00
2019-01-30T03:14:19.879Z,-1.10
2019-01-30T03:17:13.554Z,-1.20
2019-01-30T03:19:44.025Z,-1.20
2019-01-30T03:22:24.755Z,-1.30
2019-01-30T03:24:59.021Z,-1.30
2019-01-30T03:27:52.654Z,-1.30
2019-01-30T03:30:25.116Z,-1.40
2019-01-30T03:33:05.275Z,-1.50
2019-01-30T03:35:35.095Z,-1.40
2019-01-30T03:38:06.698Z,-1.40
2019-01-30T03:40:42.193Z,-1.40
2019-01-30T03:43:28.623Z,-1.50
2019-01-30T03:46:09.349Z,-1.50
2019-01-30T03:48:39.135Z,-1.50
2019-01-30T03:51:10.934Z,-1.30
2019-01-30T03:53:44.496Z,-1.40
2019-01-30T03:59:39.459Z,-1.50
2019-01-30T04:02:33.379Z,-1.70
2019-01-30T04:05:45.784Z,-1.70
2019-01-30T04:08:25.965Z,-1.80
2019-01-30T04:10:56.042Z,-1.90
2019-01-30T04:14:09.791Z,-2.00
2019-01-30T04:19:59.387Z,-2.10
2019-01-30T04:22:34.417Z,-2.10
2019-01-30T04:25:28.996Z,-2.10
2019-01-30T04:27:59.009Z,-2.10
2019-01-30T04:30:35.059Z,-2.10
2019-01-30T04:33:06.730Z,-2.20
2019-01-30T04:35:36.589Z,-2.10
2019-01-30T04:38:13.572Z,-1.80
2019-01-30T04:43:38.859Z,-1.90
2019-01-30T04:46:09.138Z,-2.00
2019-01-30T04:48:48.559Z,-2.00
2019-01-30T04:53:01.750Z,-2.10
2019-01-30T04:53:58.781Z,-2.20
2019-01-30T04:56:28.460Z,-2.20
2019-01-30T04:59:08.775Z,-2.40
2019-01-30T05:01:49.243Z,-2.40
2019-01-30T05:04:26.855Z,-2.10
2019-01-30T05:06:57.025Z,-2.30
2019-01-30T05:09:31.598Z,-2.40
2019-01-30T05:12:10.636Z,-2.50
2019-01-30T05:14:48.001Z,-2.60
2019-01-30T05:17:18.110Z,-2.70
2019-01-30T05:20:11.623Z,-2.60
2019-01-30T05:23:45.018Z,-2.60
2019-01-30T05:25:39.263Z,-2.70
2019-01-30T05:29:06.936Z,-2.70
2019-01-30T05:32:00.612Z,-2.70
2019-01-30T05:34:19.454Z,-2.50
2019-01-30T05:37:13.842Z,-2.50
2019-01-30T05:39:40.122Z,-2.70
2019-01-30T05:45:32.735Z,-2.60
2019-01-30T05:48:04.757Z,-2.70
2019-01-30T05:50:41.580Z,-2.80
2019-01-30T05:53:13.092Z,-2.70
2019-01-30T05:56:03.170Z,-2.70
2019-01-30T05:59:13.079Z,-2.70
2019-01-30T06:01:08.323Z,-2.70
2019-01-30T06:03:41.972Z,-2.70
2019-01-30T06:06:16.312Z,-2.60
2019-01-30T06:08:46.453Z,-2.70
2019-01-30T06:12:17.180Z,-2.80
2019-01-30T06:14:00.931Z,-2.70
2019-01-30T06:16:34.928Z,-2.70
2019-01-30T06:19:33.997Z,-2.70
2019-01-30T06:21:56.038Z,-2.60
2019-01-30T06:26:25.251Z,-2.60
2019-01-30T06:27:39.085Z,-2.80
2019-01-30T06:30:25.889Z,-2.80
2019-01-30T06:32:59.907Z,-2.70
2019-01-30T06:35:40.120Z,-2.40
2019-01-30T06:38:10.125Z,-2.70
2019-01-30T06:40:44.144Z,-2.70
2019-01-30T06:47:02.709Z,-2.80
2019-01-30T06:49:51.983Z,-3.00
2019-01-30T06:52:23.846Z,-3.00
2019-01-30T06:55:13.048Z,-3.10
2019-01-30T06:58:16.171Z,-3.00
2019-01-30T07:00:46.185Z,-3.10
2019-01-30T07:03:19.065Z,-3.20
2019-01-30T07:05:55.428Z,-3.30
2019-01-30T07:09:03.422Z,-3.30
2019-01-30T07:11:47.067Z,-3.30
2019-01-30T07:14:28.257Z,-3.40
2019-01-30T07:17:43.132Z,-3.30
2019-01-30T07:20:06.381Z,-3.40
2019-01-30T07:22:59.659Z,-3.40
2019-01-30T07:26:14.511Z,-3.40
2019-01-30T07:29:09.735Z,-3.40
2019-01-30T07:32:01.488Z,-3.50
2019-01-30T07:34:55.978Z,-3.50
2019-01-30T07:37:46.212Z,-3.60
2019-01-30T07:40:46.179Z,-3.60
2019-01-30T07:43:38.309Z,-3.50
2019-01-30T07:47:01.690Z,-3.50
2019-01-30T07:49:05.064Z,-3.60
2019-01-30T07:51:49.045Z,-3.60
2019-01-30T07:55:35.046Z,-3.50
2019-01-30T07:57:22.046Z,-3.60
2019-01-30T07:59:52.232Z,-3.60
2019-01-30T08:03:01.818Z,-3.70
2019-01-30T08:05:50.213Z,-3.70
2019-01-30T08:08:09.412Z,-3.70
2019-01-30T08:10:45.258Z,-3.40
2019-01-30T08:13:15.019Z,-3.40
2019-01-30T08:16:04.182Z,-3.60
2019-01-30T08:19:02.116Z,-3.40
2019-01-30T08:24:13.211Z,-3.20
2019-01-30T08:26:47.314Z,-3.40
2019-01-30T08:29:36.475Z,-3.40
2019-01-30T08:32:31.333Z,-3.30
2019-01-30T08:35:01.381Z,-3.10
2019-01-30T08:38:49.101Z,-2.80
2019-01-30T08:40:19.209Z,-2.30
2019-01-30T08:42:43.614Z,-2.20
2019-01-30T08:45:39.350Z,-2.10
2019-01-30T08:48:11.128Z,-2.00
2019-01-30T08:50:42.766Z,-1.90
2019-01-30T08:53:12.688Z,-1.80
2019-01-30T08:55:55.039Z,-1.80
2019-01-30T08:58:25.008Z,-1.70
2019-01-30T09:00:55.221Z,-1.80
2019-01-30T09:03:35.249Z,-2.00
2019-01-30T09:08:51.189Z,-1.60
2019-01-30T09:11:22.940Z,-1.20
2019-01-30T09:14:12.544Z,-1.10
2019-01-30T09:16:39.678Z,-0.80
2019-01-30T09:19:28.839Z,-0.90
2019-01-30T09:21:58.653Z,-0.80
2019-01-30T09:24:38.105Z,-0.60
2019-01-30T09:27:08.102Z,-0.30
2019-01-30T09:32:48.763Z,-0.60
2019-01-30T09:35:18.010Z,-0.40
2019-01-30T09:38:07.175Z,0.10
2019-01-30T09:40:37.048Z,0.10
2019-01-30T09:43:14.222Z,-0.20
2019-01-30T09:45:50.146Z,-0.40
2019-01-30T09:48:21.699Z,-0.30
2019-01-30T09:50:52.865Z,0.30
2019-01-30T09:53:48.732Z,0.60
2019-01-30T09:56:47.119Z,0.30
2019-01-30T09:58:48.209Z,0.00
2019-01-30T10:01:17.361Z,0.00
2019-01-30T10:07:04.434Z,0.00
2019-01-30T10:09:37.725Z,0.80
2019-01-30T10:12:33.693Z,2.00
2019-01-30T10:14:40.473Z,2.40
2019-01-30T10:17:40.805Z,3.10
2019-01-30T10:19:54.794Z,3.20
2019-01-30T10:23:40.176Z,3.10
2019-01-30T10:25:10.060Z,4.50
2019-01-30T10:28:16.239Z,5.30
2019-01-30T10:30:36.068Z,4.10
2019-01-30T10:33:13.933Z,3.40
2019-01-30T10:35:47.177Z,3.10
2019-01-30T10:38:45.307Z,3.00
2019-01-30T10:40:58.770Z,2.30
2019-01-30T10:43:40.529Z,1.80
2019-01-30T10:46:10.580Z,1.40
2019-01-30T10:48:49.310Z,1.20
2019-01-30T10:51:46.151Z,1.10
2019-01-30T10:54:15.266Z,1.00
2019-01-30T10:57:06.784Z,0.90
2019-01-30T11:00:05.426Z,1.00
2019-01-30T11:02:14.703Z,1.00
2019-01-30T11:04:55.779Z,1.00
2019-01-30T11:07:36.937Z,1.10
2019-01-30T11:10:09.736Z,1.00
2019-01-30T11:12:56.939Z,0.90
2019-01-30T11:15:34.166Z,1.00
2019-01-30T11:18:11.257Z,1.20
2019-01-30T11:21:05.870Z,1.20
2019-01-30T11:23:32.408Z,1.20
2019-01-30T11:26:19.876Z,1.20
2019-01-30T11:28:48.321Z,1.30
2019-01-30T11:31:27.236Z,1.40
2019-01-30T11:34:07.372Z,1.50
2019-01-30T11:36:32.714Z,1.60
2019-01-30T11:39:05.468Z,1.50
2019-01-30T11:41:35.506Z,1.70
2019-01-30T11:46:54.367Z,1.80
2019-01-30T11:48:01.818Z,1.80
2019-01-30T11:49:24.760Z,1.70
2019-01-30T11:52:15.257Z,1.70
2019-01-30T11:54:55.256Z,1.90
2019-01-30T11:57:21.416Z,2.10
2019-01-30T11:59:51.311Z,2.20
2019-01-30T12:02:47.489Z,2.00
2019-01-30T12:05:08.807Z,2.00
2019-01-30T12:07:38.819Z,1.90
2019-01-30T12:10:34.337Z,2.00
2019-01-30T12:13:31.135Z,2.20
2019-01-30T12:15:57.095Z,2.10
2019-01-30T12:18:37.735Z,2.40
2019-01-30T12:21:07.801Z,3.30
2019-01-30T12:26:15.156Z,4.20
2019-01-30T12:28:45.319Z,3.50
2019-01-30T12:31:44.879Z,3.10
2019-01-30T12:34:33.931Z,3.10
2019-01-30T12:37:10.668Z,3.10
2019-01-30T12:39:40.223Z,2.90
2019-01-30T12:42:39.590Z,2.90
2019-01-30T12:45:38.622Z,2.80
2019-01-30T12:47:58.495Z,3.00
2019-01-30T12:50:49.318Z,3.20
2019-01-30T12:53:21.488Z,3.10
2019-01-30T12:56:18.525Z,3.10
2019-01-30T12:58:50.121Z,3.10
2019-01-30T13:04:07.184Z,3.30
2019-01-30T13:07:05.661Z,3.30
2019-01-30T13:12:11.581Z,3.30
2019-01-30T13:14:45.237Z,3.60
2019-01-30T13:17:41.288Z,3.70
2019-01-30T13:20:32.887Z,3.60
2019-01-30T13:23:35.153Z,3.50
2019-01-30T13:26:27.695Z,3.50
2019-01-30T13:29:21.815Z,3.60
2019-01-30T13:32:17.114Z,3.60
2019-01-30T13:35:06.777Z,3.50
2019-01-30T13:38:16.848Z,3.40
2019-01-30T13:40:24.476Z,3.10
2019-01-30T13:42:54.316Z,3.00
2019-01-30T13:45:37.666Z,2.90
2019-01-30T13:48:31.561Z,2.90
2019-01-30T13:51:25.519Z,2.80
2019-01-30T13:54:19.780Z,2.60
2019-01-30T13:57:23.477Z,2.50
2019-01-30T14:00:03.377Z,2.90
2019-01-30T14:02:43.839Z,2.70
2019-01-30T14:05:55.750Z,2.70
2019-01-30T14:09:05.312Z,2.90
2019-01-30T14:11:57.189Z,3.30
2019-01-30T14:14:49.884Z,3.40
2019-01-30T14:20:34.898Z,3.60
2019-01-30T14:23:05.196Z,3.80
2019-01-30T14:28:33.308Z,3.90
2019-01-30T14:31:05.274Z,4.00
2019-01-30T14:33:54.831Z,4.10
2019-01-30T14:36:52.032Z,4.20
2019-01-30T14:39:42.386Z,4.20
2019-01-30T14:42:36.143Z,4.20
2019-01-30T14:45:34.504Z,4.30
2019-01-30T14:47:49.010Z,4.10
2019-01-30T14:50:23.497Z,4.10
2019-01-30T14:53:12.053Z,4.10
2019-01-30T14:55:46.589Z,4.00
2019-01-30T14:58:12.911Z,4.00
2019-01-30T15:01:06.153Z,3.90
2019-01-30T15:04:02.135Z,3.80
2019-01-30T15:07:05.232Z,3.80
2019-01-30T15:09:31.012Z,3.80
2019-01-30T15:11:48.521Z,3.90
2019-01-30T15:14:41.731Z,3.80
2019-01-30T15:17:38.934Z,3.70
2019-01-30T15:20:07.136Z,3.50
2019-01-30T15:22:46.860Z,3.40
2019-01-30T15:25:45.189Z,3.40
2019-01-30T15:28:26.315Z,3.40
2019-01-30T15:30:56.239Z,3.30
2019-01-30T15:33:42.836Z,3.30
2019-01-30T15:36:33.528Z,3.30
2019-01-30T15:39:24.378Z,3.20
2019-01-30T15:42:13.718Z,3.10
2019-01-30T15:45:13.751Z,3.00
2019-01-30T15:47:59.138Z,2.80
2019-01-30T15:51:10.864Z,2.60
2019-01-30T15:54:07.227Z,2.50
2019-01-30T15:57:08.593Z,2.20
2019-01-30T16:03:00.663Z,2.10
2019-01-30T16:06:38.013Z,1.80
2019-01-30T16:09:12.435Z,1.80
2019-01-30T16:12:02.075Z,1.70
2019-01-30T16:14:57.364Z,1.70
2019-01-30T16:17:27.291Z,1.60
2019-01-30T16:23:07.357Z,1.80
2019-01-30T16:27:05.361Z,2.00
2019-01-30T16:28:51.298Z,2.00
2019-01-30T16:31:35.055Z,1.90
2019-01-30T16:34:08.152Z,2.00
2019-01-30T16:37:07.906Z,1.90
2019-01-30T16:39:18.578Z,1.90
2019-01-30T16:41:48.654Z,1.80
2019-01-30T16:44:38.759Z,1.70
2019-01-30T16:47:36.568Z,1.60
2019-01-30T16:49:54.189Z,1.60
2019-01-30T16:52:24.175Z,1.50
2019-01-30T16:55:11.111Z,1.50
2019-01-30T16:57:41.628Z,1.40
2019-01-30T17:00:32.118Z,1.30
2019-01-30T17:05:51.884Z,1.20
2019-01-30T17:08:49.102Z,1.00
2019-01-30T17:11:02.229Z,1.00
2019-01-30T17:13:50.088Z,0.70
2019-01-30T17:16:20.311Z,0.60
2019-01-30T17:19:10.678Z,0.60
2019-01-30T17:21:39.713Z,0.60
2019-01-30T17:24:21.794Z,0.30
2019-01-30T17:26:55.753Z,0.20
2019-01-30T17:29:52.060Z,0.20
2019-01-30T17:32:18.835Z,0.00
2019-01-30T17:37:47.531Z,-0.20
2019-01-30T17:40:32.830Z,-0.40
2019-01-30T17:43:21.303Z,-0.40
2019-01-30T17:45:55.122Z,-0.60
2019-01-30T17:48:40.556Z,-0.60
2019-01-30T17:51:13.629Z,-0.70
2019-01-30T17:53:46.695Z,-0.80
2019-01-30T17:56:25.730Z,-0.80
2019-01-30T17:59:01.768Z,-0.70
2019-01-30T18:01:55.372Z,-1.00
2019-01-30T18:04:35.321Z,-1.10
2019-01-30T18:07:20.260Z,-1.20
2019-01-30T18:09:52.170Z,-1.20
2019-01-30T18:12:31.998Z,-1.10
2019-01-30T18:15:04.350Z,-1.10
2019-01-30T18:17:54.272Z,-1.30
2019-01-30T18:20:26.647Z,-1.30
2019-01-30T18:23:10.904Z,-1.10
2019-01-30T18:25:55.322Z,-1.40
2019-01-30T18:28:36.253Z,-1.50
2019-01-30T18:31:06.402Z,-1.40
2019-01-30T18:33:36.412Z,-1.40
2019-01-30T18:36:11.881Z,-1.60
2019-01-30T18:38:49.563Z,-1.60
2019-01-30T18:41:22.157Z,-1.60
2019-01-30T18:43:52.364Z,-1.60
2019-01-30T18:46:41.296Z,-1.70
2019-01-30T18:49:19.995Z,-1.80
2019-01-30T18:51:50.090Z,-1.90
2019-01-30T18:54:21.661Z,-1.80
2019-01-30T18:56:51.879Z,-1.90
2019-01-30T18:59:29.408Z,-1.90
2019-01-30T19:01:59.529Z,-1.80
2019-01-30T19:04:52.238Z,-1.90
2019-01-30T19:07:26.974Z,-2.00
2019-01-30T19:13:18.291Z,-2.10
2019-01-30T19:19:46.202Z,-2.10
2019-01-30T19:22:16.617Z,-2.00
2019-01-30T19:24:47.659Z,-2.10
2019-01-30T19:27:28.973Z,-2.00
2019-01-30T19:30:16.665Z,-2.20
2019-01-30T19:32:48.027Z,-2.20
2019-01-30T19:35:21.315Z,-2.20
2019-01-30T19:38:40.270Z,-2.30
2019-01-30T19:44:49.385Z,-2.40
2019-01-30T19:46:36.242Z,-2.50
2019-01-30T19:49:17.030Z,-2.60
2019-01-30T19:54:59.785Z,-2.70
2019-01-30T19:57:28.181Z,-2.60
2019-01-30T19:59:58.241Z,-2.70
2019-01-30T20:02:36.145Z,-2.70
2019-01-30T20:05:14.865Z,-2.70
2019-01-30T20:07:45.323Z,-2.80
2019-01-30T20:10:33.696Z,-2.90
2019-01-30T20:13:23.375Z,-2.90
2019-01-30T20:15:46.743Z,-2.90
2019-01-30T20:18:22.022Z,-2.90
2019-01-30T20:20:59.603Z,-2.90
2019-01-30T20:23:37.139Z,-2.90
2019-01-30T20:26:11.746Z,-3.00
2019-01-30T20:28:51.793Z,-3.00
2019-01-30T20:31:21.620Z,-2.70
2019-01-30T20:33:54.089Z,-2.70
2019-01-30T20:36:34.543Z,-2.80
2019-01-30T20:39:12.222Z,-2.90
2019-01-30T20:42:05.693Z,-2.90
2019-01-30T20:44:42.851Z,-3.10
2019-01-30T20:47:30.652Z,-3.00
2019-01-30T20:50:15.411Z,-3.10
2019-01-30T20:52:59.940Z,-3.10
2019-01-30T20:55:44.736Z,-3.10
2019-01-30T20:58:27.652Z,-3.00
2019-01-30T21:01:00.059Z,-3.10
2019-01-30T21:03:49.512Z,-3.20
2019-01-30T21:09:01.682Z,-3.10
2019-01-30T21:11:31.802Z,-3.20
2019-01-30T21:14:07.903Z,-3.30
2019-01-30T21:16:40.773Z,-3.40
2019-01-30T21:19:10.972Z,-3.40
2019-01-30T21:21:41.303Z,-3.30
2019-01-30T21:24:13.017Z,-3.40
2019-01-30T21:26:54.607Z,-3.50
2019-01-30T21:29:27.424Z,-3.40
2019-01-30T21:32:17.034Z,-3.50
2019-01-30T21:34:48.991Z,-3.40
2019-01-30T21:37:29.532Z,-3.50
2019-01-30T21:40:07.901Z,-3.40
2019-01-30T21:42:50.378Z,-3.30
2019-01-30T21:45:23.722Z,-3.40
2019-01-30T21:47:53.570Z,-3.50
2019-01-30T21:50:24.194Z,-3.60
2019-01-30T21:52:56.317Z,-3.60
2019-01-30T21:55:43.859Z,-3.70
2019-01-30T21:58:14.013Z,-3.70
2019-01-30T22:01:01.640Z,-3.70
2019-01-30T22:03:32.005Z,-3.70
2019-01-30T22:06:11.693Z,-3.70
2019-01-30T22:08:43.380Z,-3.70
2019-01-30T22:11:13.841Z,-3.80
2019-01-30T22:14:07.294Z,-3.80
2019-01-30T22:16:42.510Z,-3.80
2019-01-30T22:19:31.980Z,-3.90
2019-01-30T22:22:24.784Z,-3.90
2019-01-30T22:28:01.455Z,-3.90
2019-01-30T22:30:18.095Z,-3.90
2019-01-30T22:32:41.473Z,-3.90
2019-01-30T22:35:24.518Z,-4.00
2019-01-30T22:37:54.780Z,-3.90
2019-01-30T22:40:25.172Z,-4.00
2019-01-30T22:42:55.357Z,-4.00
2019-01-30T22:45:31.122Z,-4.00
2019-01-30T22:48:01.049Z,-4.10
2019-01-30T22:50:31.241Z,-4.10
2019-01-30T22:53:08.874Z,-4.10
2019-01-30T22:55:50.378Z,-4.10
2019-01-30T22:58:35.435Z,-4.00
2019-01-30T23:01:37.022Z,-4.00
2019-01-30T23:04:47.686Z,-4.10
2019-01-30T23:07:50.755Z,-4.10
2019-01-30T23:11:20.935Z,-4.20
2019-01-30T23:14:22.701Z,-4.20
2019-01-30T23:17:38.266Z,-4.20
2019-01-30T23:20:41.133Z,-4.20
2019-01-30T23:24:06.634Z,-4.30
2019-01-30T23:27:17.300Z,-4.20
2019-01-30T23:34:00.391Z,-4.40
2019-01-30T23:37:29.019Z,-4.30
2019-01-30T23:40:46.237Z,-4.30
2019-01-30T23:43:58.035Z,-4.20
2019-01-30T23:47:00.674Z,-4.30
2019-01-30T23:50:21.017Z,-4.40
2019-01-30T23:53:40.250Z,-4.40
2019-01-30T23:56:52.767Z,-4.50
2019-01-30T23:59:36.397Z,-4.40
